createdAt,value
2023-05-06T00:00:03.853Z,16.60
2023-05-06T00:02:40.135Z,16.14
2023-05-06T00:05:07.952Z,16.26
2023-05-06T00:07:35.229Z,16.38
2023-05-06T00:10:02.303Z,16.80
2023-05-06T00:12:29.421Z,16.85
2023-05-06T00:14:56.467Z,17.42
2023-05-06T00:17:23.628Z,16.72
2023-05-06T00:19:52.158Z,16.64
2023-05-06T00:22:19.275Z,16.60
2023-05-06T00:24:46.456Z,18.13
2023-05-06T00:27:13.639Z,16.57
2023-05-06T00:29:40.699Z,15.86
2023-05-06T00:32:07.880Z,16.68
2023-05-06T00:34:34.990Z,16.74
2023-05-06T00:37:03.651Z,16.06
2023-05-06T00:39:30.806Z,16.47
2023-05-06T00:41:59.736Z,16.84
2023-05-06T00:44:26.789Z,16.77
2023-05-06T00:46:53.989Z,16.27
2023-05-06T00:49:21.947Z,16.86
2023-05-06T00:51:49.583Z,17.12
2023-05-06T00:54:18.450Z,16.19
2023-05-06T00:56:45.536Z,16.89
2023-05-06T00:59:12.826Z,16.70
2023-05-06T01:01:40.838Z,17.83
2023-05-06T01:04:08.097Z,17.09
2023-05-06T01:06:37.893Z,16.95
2023-05-06T01:09:07.945Z,17.30
2023-05-06T01:11:39.027Z,16.49
2023-05-06T01:14:08.570Z,16.21
2023-05-06T01:16:38.436Z,17.58
2023-05-06T01:19:06.053Z,15.98
2023-05-06T01:21:33.246Z,17.46
2023-05-06T01:24:01.935Z,15.17
2023-05-06T01:26:29.212Z,17.35
2023-05-06T01:28:57.296Z,17.68
2023-05-06T01:31:25.940Z,18.57
2023-05-06T01:34:02.640Z,18.10
2023-05-06T01:36:33.233Z,19.31
2023-05-06T01:39:08.961Z,18.75
2023-05-06T01:41:39.403Z,17.96
2023-05-06T01:44:07.657Z,18.21
2023-05-06T01:46:35.850Z,19.45
2023-05-06T01:49:04.813Z,19.07
2023-05-06T01:51:32.918Z,19.31
2023-05-06T01:54:01.473Z,18.75
2023-05-06T01:56:28.617Z,19.03
2023-05-06T01:58:55.686Z,19.12
2023-05-06T02:01:22.884Z,18.08
2023-05-06T02:03:50.099Z,17.25
2023-05-06T02:06:17.405Z,18.44
2023-05-06T02:08:44.827Z,17.91
2023-05-06T02:11:18.121Z,19.19
2023-05-06T02:13:46.350Z,19.18
2023-05-06T02:16:13.622Z,19.09
2023-05-06T02:18:41.012Z,18.09
2023-05-06T02:21:08.397Z,18.89
2023-05-06T02:23:36.752Z,18.70
2023-05-06T02:26:03.839Z,17.12
2023-05-06T02:28:32.355Z,18.95
2023-05-06T02:30:59.752Z,19.29
2023-05-06T02:33:26.807Z,18.43
2023-05-06T02:35:54.060Z,18.92
2023-05-06T02:38:21.577Z,18.14
2023-05-06T02:40:48.672Z,18.81
2023-05-06T02:43:15.787Z,18.12
2023-05-06T02:45:44.442Z,19.09
2023-05-06T02:48:11.541Z,18.71
2023-05-06T02:50:38.651Z,19.03
2023-05-06T02:53:05.789Z,17.78
2023-05-06T02:55:32.918Z,16.48
2023-05-06T02:57:59.998Z,18.26
2023-05-06T03:00:27.370Z,17.74
2023-05-06T03:02:55.973Z,17.26
2023-05-06T03:05:23.082Z,18.12
2023-05-06T03:07:50.179Z,17.66
2023-05-06T03:10:17.581Z,18.79
2023-05-06T03:12:44.716Z,17.62
2023-05-06T03:15:12.201Z,18.16
2023-05-06T03:17:39.632Z,16.93
2023-05-06T03:20:10.018Z,18.69
2023-05-06T03:22:41.228Z,18.98
2023-05-06T03:25:09.146Z,17.77
2023-05-06T03:27:39.297Z,17.97
2023-05-06T03:30:13.621Z,18.59
2023-05-06T03:32:41.035Z,17.70
2023-05-06T03:35:12.529Z,19.30
2023-05-06T03:37:42.694Z,17.96
2023-05-06T03:40:10.707Z,18.19
2023-05-06T03:42:38.740Z,18.32
2023-05-06T03:45:06.774Z,17.62
2023-05-06T03:47:34.581Z,18.60
2023-05-06T03:50:03.548Z,18.58
2023-05-06T03:52:34.511Z,19.08
2023-05-06T03:55:01.790Z,19.40
2023-05-06T03:57:31.011Z,18.09
2023-05-06T03:59:58.729Z,19.03
2023-05-06T04:02:27.669Z,19.21
2023-05-06T04:04:55.300Z,19.29
2023-05-06T04:07:22.422Z,18.69
2023-05-06T04:09:52.463Z,19.26
2023-05-06T04:12:20.112Z,18.58
2023-05-06T04:14:48.305Z,19.85
2023-05-06T04:17:15.718Z,18.83
2023-05-06T04:19:44.253Z,19.45
2023-05-06T04:22:11.372Z,19.21
2023-05-06T04:24:38.740Z,19.06
2023-05-06T04:27:07.698Z,18.89
2023-05-06T04:29:34.892Z,19.40
2023-05-06T04:32:04.700Z,19.06
2023-05-06T04:34:35.067Z,18.82
2023-05-06T04:37:02.412Z,18.94
2023-05-06T04:39:55.847Z,18.63
2023-05-06T04:42:25.035Z,19.83
2023-05-06T04:45:02.727Z,18.57
2023-05-06T04:47:32.801Z,18.44
2023-05-06T04:50:00.893Z,17.37
2023-05-06T04:52:28.878Z,19.17
2023-05-06T04:54:56.185Z,16.91
2023-05-06T04:57:25.853Z,17.76
2023-05-06T04:59:54.917Z,19.29
2023-05-06T05:02:22.393Z,19.48
2023-05-06T05:04:50.282Z,19.16
2023-05-06T05:07:17.645Z,18.39
2023-05-06T05:09:44.827Z,18.65
2023-05-06T05:12:12.057Z,17.89
2023-05-06T05:14:44.755Z,17.25
2023-05-06T05:17:14.044Z,17.50
2023-05-06T05:19:41.868Z,17.51
2023-05-06T05:22:09.370Z,18.04
2023-05-06T05:24:36.497Z,17.99
2023-05-06T05:27:03.599Z,18.83
2023-05-06T05:29:30.928Z,18.63
2023-05-06T05:32:01.645Z,19.35
2023-05-06T05:34:28.856Z,19.17
2023-05-06T05:36:56.798Z,19.63
2023-05-06T05:39:24.598Z,18.53
2023-05-06T05:41:51.847Z,19.36
2023-05-06T05:44:19.205Z,19.34
2023-05-06T05:46:47.006Z,18.77
2023-05-06T05:49:19.270Z,17.91
2023-05-06T05:51:48.951Z,17.58
2023-05-06T05:54:18.238Z,17.69
2023-05-06T05:56:46.395Z,18.23
2023-05-06T05:59:14.523Z,18.05
2023-05-06T06:01:43.101Z,17.68
2023-05-06T06:04:10.756Z,18.60
2023-05-06T06:06:40.048Z,18.19
2023-05-06T06:09:07.135Z,19.64
2023-05-06T06:11:34.356Z,18.73
2023-05-06T06:14:02.193Z,17.71
2023-05-06T06:16:29.539Z,17.54
2023-05-06T06:18:57.010Z,15.84
2023-05-06T06:21:24.900Z,17.35
2023-05-06T06:23:54.493Z,17.93
2023-05-06T06:26:21.599Z,17.95
2023-05-06T06:28:48.690Z,17.55
2023-05-06T06:31:15.951Z,17.39
2023-05-06T06:33:43.120Z,16.63
2023-05-06T06:36:11.248Z,17.67
2023-05-06T06:38:38.808Z,17.15
2023-05-06T06:41:07.375Z,16.98
2023-05-06T06:43:34.461Z,18.33
2023-05-06T06:46:07.285Z,18.21
2023-05-06T06:48:34.722Z,16.26
2023-05-06T06:51:01.952Z,16.62
2023-05-06T06:53:28.999Z,16.64
2023-05-06T06:55:56.082Z,17.88
2023-05-06T06:58:24.643Z,16.62
2023-05-06T07:00:51.743Z,16.41
2023-05-06T07:03:18.904Z,16.05
2023-05-06T07:05:46.082Z,15.27
2023-05-06T07:08:13.267Z,15.17
2023-05-06T07:10:40.430Z,15.99
2023-05-06T07:13:07.654Z,14.70
2023-05-06T07:15:36.202Z,16.03
2023-05-06T07:18:03.474Z,14.82
2023-05-06T07:20:30.742Z,16.60
2023-05-06T07:22:58.003Z,15.78
2023-05-06T07:25:25.090Z,14.44
2023-05-06T07:27:52.330Z,14.23
2023-05-06T07:30:21.065Z,15.03
2023-05-06T07:32:51.549Z,15.44
2023-05-06T07:35:18.715Z,14.82
2023-05-06T07:37:46.148Z,14.73
2023-05-06T07:40:13.457Z,14.61
2023-05-06T07:42:42.813Z,14.87
2023-05-06T07:45:11.154Z,14.63
2023-05-06T07:47:38.743Z,14.15
2023-05-06T07:50:08.096Z,14.51
2023-05-06T07:52:35.232Z,14.37
2023-05-06T07:55:02.319Z,14.58
2023-05-06T07:57:29.410Z,15.10
2023-05-06T07:59:56.742Z,14.56
2023-05-06T08:02:23.828Z,15.11
2023-05-06T08:04:51.935Z,13.95
2023-05-06T08:07:20.652Z,14.25
2023-05-06T08:09:47.804Z,13.75
2023-05-06T08:12:14.897Z,14.39
2023-05-06T08:14:42.176Z,13.50
2023-05-06T08:17:09.324Z,13.74
2023-05-06T08:19:36.406Z,13.42
2023-05-06T08:22:03.498Z,13.98
2023-05-06T08:24:32.042Z,14.07
2023-05-06T08:26:59.168Z,12.96
2023-05-06T08:29:26.324Z,13.98
2023-05-06T08:31:53.522Z,14.65
2023-05-06T08:34:20.969Z,13.51
2023-05-06T08:36:48.371Z,13.19
2023-05-06T08:39:15.669Z,14.35
2023-05-06T08:41:47.351Z,13.92
2023-05-06T08:44:15.451Z,14.48
2023-05-06T08:46:42.736Z,14.03
2023-05-06T08:49:09.939Z,14.15
2023-05-06T08:51:38.208Z,14.50
2023-05-06T08:54:06.005Z,14.51
2023-05-06T08:56:34.125Z,13.46
2023-05-06T08:59:02.782Z,14.14
2023-05-06T09:01:29.954Z,13.88
2023-05-06T09:03:58.285Z,14.12
2023-05-06T09:06:25.927Z,14.63
2023-05-06T09:08:53.230Z,13.20
2023-05-06T09:11:22.058Z,13.04
2023-05-06T09:13:49.642Z,13.31
2023-05-06T09:16:30.921Z,13.33
2023-05-06T09:18:58.989Z,14.18
2023-05-06T09:21:36.268Z,13.15
2023-05-06T09:24:03.808Z,13.17
2023-05-06T09:26:31.132Z,13.78
2023-05-06T09:28:58.267Z,13.13
2023-05-06T09:31:25.866Z,14.06
2023-05-06T09:33:54.915Z,13.20
2023-05-06T09:36:22.438Z,12.52
2023-05-06T09:38:49.706Z,13.29
2023-05-06T09:41:20.353Z,12.66
2023-05-06T09:43:48.177Z,12.86
2023-05-06T09:46:16.236Z,13.45
2023-05-06T09:48:43.503Z,13.98
2023-05-06T09:51:12.214Z,12.40
2023-05-06T09:53:39.524Z,12.93
2023-05-06T09:56:07.804Z,12.97
2023-05-06T09:58:35.470Z,12.37
2023-05-06T10:01:02.834Z,12.77
2023-05-06T10:03:31.086Z,13.56
2023-05-06T10:05:58.623Z,12.94
2023-05-06T10:08:27.806Z,12.56
2023-05-06T10:10:55.504Z,12.56
2023-05-06T10:13:23.556Z,12.63
2023-05-06T10:15:50.873Z,13.11
2023-05-06T10:18:19.254Z,12.77
2023-05-06T10:20:47.735Z,12.51
2023-05-06T10:23:21.324Z,11.89
2023-05-06T10:25:51.242Z,12.80
2023-05-06T10:28:26.260Z,13.12
2023-05-06T10:30:58.539Z,11.80
2023-05-06T10:33:26.529Z,13.02
2023-05-06T10:35:55.686Z,12.48
2023-05-06T10:38:24.840Z,12.86
2023-05-06T10:40:53.882Z,11.75
2023-05-06T10:43:24.880Z,12.23
2023-05-06T10:46:02.600Z,12.45
2023-05-06T10:48:30.159Z,12.54
2023-05-06T10:51:18.067Z,11.98
2023-05-06T10:53:58.071Z,11.79
2023-05-06T10:56:27.013Z,12.33
2023-05-06T10:58:54.244Z,12.25
2023-05-06T11:01:21.876Z,12.51
2023-05-06T11:03:50.709Z,12.52
2023-05-06T11:06:32.031Z,12.45
2023-05-06T11:08:59.457Z,12.48
2023-05-06T11:11:44.915Z,12.05
2023-05-06T11:14:14.283Z,12.40
2023-05-06T11:16:47.213Z,11.77
2023-05-06T11:19:18.656Z,11.90
2023-05-06T11:21:45.738Z,12.13
2023-05-06T11:24:13.711Z,12.14
2023-05-06T11:26:41.565Z,12.51
2023-05-06T11:29:09.107Z,11.94
2023-05-06T11:31:41.803Z,11.37
2023-05-06T11:34:09.983Z,12.18
2023-05-06T11:36:37.805Z,11.90
2023-05-06T11:39:08.339Z,12.32
2023-05-06T11:41:38.751Z,12.57
2023-05-06T11:44:05.842Z,11.51
2023-05-06T11:46:33.339Z,11.99
2023-05-06T11:49:01.968Z,12.38
2023-05-06T11:51:29.634Z,11.37
2023-05-06T11:54:04.420Z,11.11
2023-05-06T11:56:31.510Z,12.74
2023-05-06T11:58:58.556Z,12.25
2023-05-06T12:01:25.630Z,11.67
2023-05-06T12:03:55.440Z,12.70
2023-05-06T12:06:34.235Z,11.32
2023-05-06T12:09:01.534Z,12.10
2023-05-06T12:11:28.860Z,12.67
2023-05-06T12:13:56.153Z,12.39
2023-05-06T12:16:23.478Z,12.05
2023-05-06T12:18:50.658Z,12.96
2023-05-06T12:21:22.138Z,12.42
2023-05-06T12:23:54.463Z,12.37
2023-05-06T12:26:21.579Z,14.11
2023-05-06T12:29:04.313Z,12.06
2023-05-06T12:31:31.473Z,12.08
2023-05-06T12:34:00.547Z,14.11
2023-05-06T12:36:28.606Z,12.52
2023-05-06T12:38:57.874Z,12.31
2023-05-06T12:41:25.552Z,12.65
2023-05-06T12:43:52.707Z,12.83
2023-05-06T12:46:19.878Z,13.26
2023-05-06T12:48:57.021Z,12.99
2023-05-06T12:51:24.344Z,11.81
2023-05-06T12:53:51.420Z,11.74
2023-05-06T12:56:20.020Z,11.50
2023-05-06T12:58:55.961Z,12.59
2023-05-06T13:01:23.433Z,11.96
2023-05-06T13:03:51.308Z,12.19
2023-05-06T13:06:18.419Z,12.61
2023-05-06T13:08:45.522Z,11.31
2023-05-06T13:11:12.612Z,11.62
2023-05-06T13:13:41.110Z,12.10
2023-05-06T13:16:08.840Z,12.27
2023-05-06T13:18:36.155Z,12.21
2023-05-06T13:21:03.274Z,11.57
2023-05-06T13:23:30.453Z,13.05
2023-05-06T13:26:04.862Z,12.20
2023-05-06T13:28:33.281Z,13.19
2023-05-06T13:31:01.936Z,13.67
2023-05-06T13:33:29.056Z,14.06
2023-05-06T13:35:56.188Z,14.91
2023-05-06T13:38:23.448Z,13.62
2023-05-06T13:40:51.622Z,14.03
2023-05-06T13:43:18.962Z,14.59
2023-05-06T13:45:46.198Z,14.86
2023-05-06T13:48:15.983Z,13.85
2023-05-06T13:50:43.299Z,14.58
2023-05-06T13:53:10.680Z,14.64
2023-05-06T13:55:38.150Z,13.95
2023-05-06T13:58:05.870Z,14.36
2023-05-06T14:00:33.201Z,14.61
2023-05-06T14:03:00.569Z,14.55
2023-05-06T14:05:29.211Z,15.56
2023-05-06T14:07:56.399Z,14.69
2023-05-06T14:10:23.545Z,14.89
2023-05-06T14:12:50.806Z,15.08
2023-05-06T14:15:17.996Z,14.77
2023-05-06T14:17:45.617Z,16.07
2023-05-06T14:20:12.819Z,16.62
2023-05-06T14:22:41.657Z,15.56
2023-05-06T14:25:09.999Z,15.80
2023-05-06T14:27:37.446Z,15.28
2023-05-06T14:30:06.676Z,15.43
2023-05-06T14:32:35.981Z,15.09
2023-05-06T14:35:03.149Z,15.73
2023-05-06T14:37:30.861Z,16.54
2023-05-06T14:39:59.456Z,15.82
2023-05-06T14:42:26.626Z,15.41
2023-05-06T14:44:53.821Z,15.86
2023-05-06T14:47:20.911Z,16.34
2023-05-06T14:49:48.144Z,15.36
2023-05-06T14:52:15.205Z,15.46
2023-05-06T14:54:42.781Z,15.45
2023-05-06T14:57:11.872Z,15.61
2023-05-06T14:59:38.981Z,16.85
2023-05-06T15:02:07.296Z,15.80
2023-05-06T15:04:34.434Z,15.15
2023-05-06T15:07:01.980Z,15.51
2023-05-06T15:09:29.169Z,16.54
2023-05-06T15:11:56.292Z,16.59
2023-05-06T15:14:24.832Z,16.19
2023-05-06T15:16:53.083Z,16.05
2023-05-06T15:19:20.464Z,16.30
2023-05-06T15:21:47.562Z,16.30
2023-05-06T15:24:14.649Z,15.64
2023-05-06T15:26:41.788Z,16.71
2023-05-06T15:29:08.887Z,16.61
2023-05-06T15:31:37.470Z,15.95
2023-05-06T15:34:05.217Z,17.18
2023-05-06T15:36:32.460Z,16.42
2023-05-06T15:39:00.645Z,17.11
2023-05-06T15:41:28.650Z,16.39
2023-05-06T15:43:56.575Z,16.44
2023-05-06T15:46:23.784Z,17.11
2023-05-06T15:49:09.067Z,16.61
2023-05-06T15:51:39.401Z,16.30
2023-05-06T15:54:06.959Z,16.24
2023-05-06T15:56:39.363Z,16.61
2023-05-06T15:59:09.044Z,16.27
2023-05-06T16:02:16.567Z,16.15
2023-05-06T16:04:25.527Z,16.25
2023-05-06T16:06:52.748Z,15.56
2023-05-06T16:09:20.221Z,15.62
2023-05-06T16:11:47.299Z,16.82
2023-05-06T16:14:14.343Z,15.48
2023-05-06T16:16:42.131Z,16.78
2023-05-06T16:19:09.560Z,17.51
2023-05-06T16:21:38.124Z,16.45
2023-05-06T16:24:05.384Z,16.43
2023-05-06T16:26:32.430Z,16.58
2023-05-06T16:28:59.610Z,17.40
2023-05-06T16:31:26.896Z,16.74
2023-05-06T16:33:53.998Z,16.03
2023-05-06T16:36:21.093Z,17.60
2023-05-06T16:38:50.238Z,16.59
2023-05-06T16:41:17.386Z,16.85
2023-05-06T16:43:44.603Z,17.58
2023-05-06T16:46:11.749Z,16.94
2023-05-06T16:48:39.354Z,17.77
2023-05-06T16:51:06.732Z,18.03
2023-05-06T16:53:33.841Z,17.54
2023-05-06T16:56:03.180Z,17.76
2023-05-06T16:58:30.201Z,17.56
2023-05-06T17:00:57.439Z,17.16
2023-05-06T17:03:24.816Z,17.30
2023-05-06T17:05:52.040Z,18.01
2023-05-06T17:08:19.327Z,17.50
2023-05-06T17:10:46.576Z,17.33
2023-05-06T17:13:15.172Z,18.17
2023-05-06T17:15:42.250Z,18.33
2023-05-06T17:18:09.411Z,17.76
2023-05-06T17:20:51.524Z,17.99
2023-05-06T17:23:22.861Z,17.26
2023-05-06T17:25:50.070Z,17.62
2023-05-06T17:31:05.730Z,17.50
2023-05-06T17:33:32.919Z,17.03
2023-05-06T17:36:00.114Z,17.32
2023-05-06T17:38:27.272Z,17.46
2023-05-06T17:40:54.334Z,17.38
2023-05-06T17:43:22.925Z,17.45
2023-05-06T17:45:50.098Z,17.63
2023-05-06T17:48:17.177Z,17.19
2023-05-06T17:50:44.257Z,17.69
2023-05-06T17:53:11.715Z,17.57
2023-05-06T17:55:38.786Z,17.38
2023-05-06T17:58:06.076Z,17.55
2023-05-06T18:00:34.792Z,17.32
2023-05-06T18:03:01.974Z,17.06
2023-05-06T18:05:29.263Z,17.62
2023-05-06T18:07:56.837Z,17.29
2023-05-06T18:10:23.905Z,17.78
2023-05-06T18:12:51.055Z,17.21
2023-05-06T18:15:18.278Z,17.34
2023-05-06T18:17:47.012Z,17.25
2023-05-06T18:20:14.105Z,16.93
2023-05-06T18:22:41.189Z,17.43
2023-05-06T18:25:09.326Z,16.88
2023-05-06T18:27:36.569Z,17.87
2023-05-06T18:30:03.772Z,17.30
2023-05-06T18:32:31.438Z,17.28
2023-05-06T18:35:00.062Z,17.44
2023-05-06T18:37:27.940Z,17.99
2023-05-06T18:39:55.417Z,16.96
2023-05-06T18:42:22.577Z,17.95
2023-05-06T18:44:49.697Z,17.41
2023-05-06T18:47:17.336Z,17.52
2023-05-06T18:49:44.769Z,17.50
2023-05-06T18:52:13.426Z,17.50
2023-05-06T18:54:40.587Z,17.04
2023-05-06T18:57:07.873Z,17.42
2023-05-06T18:59:35.062Z,17.14
2023-05-06T19:02:03.771Z,17.39
2023-05-06T19:04:31.802Z,16.84
2023-05-06T19:06:58.962Z,17.78
2023-05-06T19:09:27.516Z,17.16
2023-05-06T19:11:54.601Z,17.70
2023-05-06T19:14:22.901Z,17.43
2023-05-06T19:16:50.609Z,17.48
2023-05-06T19:19:17.760Z,17.15
2023-05-06T19:21:44.825Z,18.13
2023-05-06T19:24:12.413Z,17.85
2023-05-06T19:26:41.023Z,17.78
2023-05-06T19:29:08.402Z,17.58
2023-05-06T19:31:35.709Z,17.61
2023-05-06T19:34:03.450Z,17.59
2023-05-06T19:36:30.498Z,17.80
2023-05-06T19:38:57.557Z,17.71
2023-05-06T19:41:25.270Z,18.06
2023-05-06T19:43:53.785Z,16.81
2023-05-06T19:46:20.951Z,16.83
2023-05-06T19:48:48.195Z,16.59
2023-05-06T19:51:15.264Z,17.34
2023-05-06T19:53:42.364Z,17.38
2023-05-06T19:56:10.126Z,16.73
2023-05-06T19:58:37.278Z,16.38
2023-05-06T20:01:06.468Z,16.98
2023-05-06T20:03:34.180Z,16.41
2023-05-06T20:06:01.356Z,16.61
2023-05-06T20:08:28.961Z,16.67
2023-05-06T20:10:56.067Z,16.11
2023-05-06T20:13:23.400Z,16.39
2023-05-06T20:15:50.607Z,16.04
2023-05-06T20:18:19.193Z,15.89
2023-05-06T20:20:46.229Z,16.92
2023-05-06T20:23:13.306Z,16.21
2023-05-06T20:25:40.415Z,16.50
2023-05-06T20:28:07.642Z,16.83
2023-05-06T20:30:34.752Z,16.89
2023-05-06T20:33:02.531Z,16.78
2023-05-06T20:35:31.150Z,16.71
2023-05-06T20:37:58.267Z,16.43
2023-05-06T20:40:25.392Z,15.81
2023-05-06T20:42:52.531Z,16.28
2023-05-06T20:45:19.857Z,15.83
2023-05-06T20:47:47.094Z,16.08
2023-05-06T20:50:14.231Z,16.36
2023-05-06T20:52:43.086Z,16.23
2023-05-06T20:55:10.615Z,16.82
2023-05-06T20:57:41.939Z,16.28
2023-05-06T21:00:09.518Z,16.43
2023-05-06T21:02:41.318Z,15.91
2023-05-06T21:05:09.773Z,16.77
2023-05-06T21:07:37.112Z,15.72
2023-05-06T21:10:06.115Z,16.07
2023-05-06T21:12:33.582Z,16.00
2023-05-06T21:15:00.717Z,16.05
2023-05-06T21:17:29.299Z,16.72
2023-05-06T21:19:56.489Z,16.95
2023-05-06T21:22:24.122Z,16.70
2023-05-06T21:24:51.431Z,16.20
2023-05-06T21:27:20.136Z,15.97
2023-05-06T21:29:47.213Z,17.09
2023-05-06T21:32:14.447Z,16.05
2023-05-06T21:34:41.495Z,15.95
2023-05-06T21:37:08.713Z,16.82
2023-05-06T21:39:35.764Z,17.07
2023-05-06T21:42:02.855Z,16.27
2023-05-06T21:44:32.996Z,16.70
2023-05-06T21:47:00.188Z,16.28
2023-05-06T21:49:27.352Z,15.95
2023-05-06T21:51:54.482Z,16.92
2023-05-06T21:54:21.535Z,16.25
2023-05-06T21:56:48.607Z,16.28
2023-05-06T21:59:15.689Z,17.34
2023-05-06T22:01:44.888Z,16.71
2023-05-06T22:04:12.068Z,16.33
2023-05-06T22:06:39.326Z,16.14
2023-05-06T22:09:06.452Z,16.19
2023-05-06T22:11:33.648Z,16.28
2023-05-06T22:14:00.863Z,16.23
2023-05-06T22:16:28.103Z,17.06
2023-05-06T22:18:56.830Z,16.19
2023-05-06T22:21:23.985Z,17.03
2023-05-06T22:23:51.057Z,17.64
2023-05-06T22:26:18.182Z,16.96
2023-05-06T22:28:45.268Z,16.65
2023-05-06T22:31:12.401Z,16.65
2023-05-06T22:33:39.983Z,17.38
2023-05-06T22:36:08.702Z,17.13
2023-05-06T22:38:35.786Z,17.97
2023-05-06T22:41:02.915Z,17.39
2023-05-06T22:43:29.945Z,16.88
2023-05-06T22:45:57.159Z,17.12
2023-05-06T22:48:24.281Z,16.96
2023-05-06T22:50:51.346Z,17.53
2023-05-06T22:53:19.897Z,17.66
2023-05-06T22:55:46.973Z,17.57
2023-05-06T22:58:14.073Z,17.61
2023-05-06T23:00:41.376Z,18.03
2023-05-06T23:03:08.553Z,18.15
2023-05-06T23:05:35.733Z,16.76
2023-05-06T23:08:02.941Z,17.66
2023-05-06T23:10:31.485Z,17.31
2023-05-06T23:13:00.236Z,18.38
2023-05-06T23:15:27.607Z,18.04
2023-05-06T23:17:54.911Z,17.36
2023-05-06T23:20:22.099Z,18.74
2023-05-06T23:22:49.161Z,18.40
2023-05-06T23:25:17.229Z,18.75
2023-05-06T23:27:46.762Z,18.44
2023-05-06T23:30:13.990Z,18.41
2023-05-06T23:32:41.222Z,18.90
2023-05-06T23:35:08.902Z,18.01
2023-05-06T23:37:36.211Z,18.98
2023-05-06T23:40:03.377Z,18.35
2023-05-06T23:42:30.431Z,19.35
2023-05-06T23:44:59.050Z,19.17
2023-05-06T23:47:26.149Z,18.54
2023-05-06T23:49:53.259Z,18.53
2023-05-06T23:52:20.385Z,18.23
2023-05-06T23:54:47.449Z,18.63
2023-05-06T23:57:14.645Z,18.45
2023-05-06T23:59:41.698Z,18.85
